Time;durP1;ratioP1;P1;durP2;ratioP2;P2;SDS_P1;SDS_P2;PMS_P1;PMS_P2;Temp;Humidity;BMP_temperature;BMP_pressure;BME280_temperature;BME280_humidity;BME280_pressure;Samples;Min_cycle;Max_cycle;Signal;HPM_P1;HPM_P2
2022/12/02 00:01:21;;;;;;;50.38;25.88;;;;;;;;;;5053109;28;20415;-79
2022/12/02 00:03:47;;;;;;;48.88;26.13;;;;;;;;;;5050394;28;20423;-78
2022/12/02 00:06:23;;;;;;;49.50;25.88;;;;;;;;;;5053135;28;20490;-78
2022/12/02 00:08:49;;;;;;;48.03;25.03;;;;;;;;;;5052171;28;20451;-78
2022/12/02 00:11:36;;;;;;;50.63;26.17;;;;;;;;;;5065088;28;20494;-78
2022/12/02 00:14:05;;;;;;;49.63;26.08;;;;;;;;;;5036197;28;20477;-78
2022/12/02 00:16:31;;;;;;;48.90;26.48;;;;;;;;;;5051652;28;20498;-79
2022/12/02 00:18:57;;;;;;;47.27;26.00;;;;;;;;;;5051713;28;20431;-78
2022/12/02 00:21:23;;;;;;;51.88;26.35;;;;;;;;;;5055036;28;20424;-78
2022/12/02 00:23:49;;;;;;;49.77;25.20;;;;;;;;;;5057765;28;20399;-79
2022/12/02 00:26:15;;;;;;;52.50;27.17;;;;;;;;;;5057225;28;20523;-79
2022/12/02 00:28:41;;;;;;;49.30;26.08;;;;;;;;;;5053470;28;20944;-79
2022/12/02 00:31:08;;;;;;;49.75;26.25;;;;;;;;;;5053222;28;21230;-77
2022/12/02 00:33:34;;;;;;;50.03;26.80;;;;;;;;;;5055831;28;20415;-78
2022/12/02 00:36:00;;;;;;;47.03;26.27;;;;;;;;;;5064880;28;20502;-78
2022/12/02 00:38:26;;;;;;;49.10;25.73;;;;;;;;;;5034511;28;20434;-79
2022/12/02 00:40:52;;;;;;;50.53;25.25;;;;;;;;;;5049875;28;20510;-80
2022/12/02 00:48:47;;;;;;;46.15;25.60;;;;;;;;;;5056721;28;20426;-78
2022/12/02 00:51:13;;;;;;;51.20;26.65;;;;;;;;;;5055016;28;20423;-78
2022/12/02 00:53:39;;;;;;;49.37;26.00;;;;;;;;;;5038898;28;20510;-78
2022/12/02 00:56:05;;;;;;;49.33;25.65;;;;;;;;;;5038188;28;20428;-78
2022/12/02 00:58:31;;;;;;;52.75;27.15;;;;;;;;;;5039642;28;20485;-77
2022/12/02 01:00:57;;;;;;;50.85;26.83;;;;;;;;;;5055762;28;20430;-77
2022/12/02 01:03:23;;;;;;;51.25;26.88;;;;;;;;;;5057176;28;20408;-77
2022/12/02 01:05:49;;;;;;;51.20;26.35;;;;;;;;;;5059190;28;20449;-77
2022/12/02 01:08:16;;;;;;;50.65;26.67;;;;;;;;;;5075035;28;20423;-78
2022/12/02 01:10:42;;;;;;;51.05;26.98;;;;;;;;;;5076708;28;20420;-80
2022/12/02 01:13:08;;;;;;;49.37;26.83;;;;;;;;;;5047885;28;20391;-79
2022/12/02 01:15:34;;;;;;;51.45;27.23;;;;;;;;;;5049962;28;20438;-79
2022/12/02 01:18:00;;;;;;;49.47;26.08;;;;;;;;;;5039645;28;20465;-79
2022/12/02 01:20:26;;;;;;;52.08;26.77;;;;;;;;;;5059058;28;20407;-78
2022/12/02 01:22:52;;;;;;;50.10;26.60;;;;;;;;;;5077329;28;20391;-79
2022/12/02 01:25:18;;;;;;;52.05;26.90;;;;;;;;;;5064921;28;20458;-79
2022/12/02 01:27:44;;;;;;;48.15;26.10;;;;;;;;;;5039857;28;20428;-78
2022/12/02 01:30:11;;;;;;;47.85;25.58;;;;;;;;;;5038245;28;20502;-78
2022/12/02 01:32:37;;;;;;;49.75;25.20;;;;;;;;;;5051200;28;21884;-79
2022/12/02 01:35:03;;;;;;;49.37;24.87;;;;;;;;;;5037586;28;20471;-78
2022/12/02 01:37:29;;;;;;;47.78;24.40;;;;;;;;;;5037481;28;20426;-79
2022/12/02 01:39:55;;;;;;;43.43;23.50;;;;;;;;;;5031255;28;20517;-79
2022/12/02 01:42:21;;;;;;;43.42;23.58;;;;;;;;;;5028186;28;20923;-78
2022/12/02 01:44:47;;;;;;;44.15;22.95;;;;;;;;;;5016557;28;20422;-78
2022/12/02 01:47:13;;;;;;;42.78;23.55;;;;;;;;;;5032166;28;20988;-79
2022/12/02 01:49:39;;;;;;;42.92;22.95;;;;;;;;;;5001460;28;20438;-78
2022/12/02 01:52:05;;;;;;;42.42;22.95;;;;;;;;;;5029962;28;20431;-78
2022/12/02 01:54:32;;;;;;;42.88;22.45;;;;;;;;;;5031544;28;20429;-78
2022/12/02 01:56:58;;;;;;;42.83;22.77;;;;;;;;;;5032627;28;20422;-78
2022/12/02 01:59:24;;;;;;;42.35;22.50;;;;;;;;;;5031218;28;20767;-78
2022/12/02 02:01:50;;;;;;;40.47;21.17;;;;;;;;;;5017051;28;20430;-78
2022/12/02 02:04:17;;;;;;;40.17;21.95;;;;;;;;;;5031837;28;20744;-78
2022/12/02 02:06:44;;;;;;;43.08;21.73;;;;;;;;;;5029678;28;20919;-78
2022/12/02 02:09:11;;;;;;;39.58;21.23;;;;;;;;;;5012761;28;20425;-78
2022/12/02 02:11:38;;;;;;;38.22;20.80;;;;;;;;;;5030923;28;20423;-78
2022/12/02 02:14:04;;;;;;;39.55;20.33;;;;;;;;;;5028649;28;20435;-79
2022/12/02 02:16:31;;;;;;;40.70;21.00;;;;;;;;;;5026680;28;20918;-78
2022/12/02 02:18:57;;;;;;;39.65;21.10;;;;;;;;;;5014519;28;20990;-78
2022/12/02 02:21:26;;;;;;;39.00;20.23;;;;;;;;;;5014032;28;20433;-78
2022/12/02 02:23:52;;;;;;;37.58;19.52;;;;;;;;;;5030940;28;20427;-78
2022/12/02 02:26:18;;;;;;;37.13;20.23;;;;;;;;;;5053152;28;20421;-78
2022/12/02 02:28:44;;;;;;;37.20;18.92;;;;;;;;;;5042045;28;20457;-79
2022/12/02 02:31:10;;;;;;;37.53;18.33;;;;;;;;;;5019310;28;20433;-79
2022/12/02 02:33:37;;;;;;;34.47;18.33;;;;;;;;;;5012765;28;20420;-78
2022/12/02 02:36:03;;;;;;;35.97;18.48;;;;;;;;;;5029731;28;20433;-80
2022/12/02 02:38:30;;;;;;;37.88;18.67;;;;;;;;;;5009957;28;20484;-79
2022/12/02 02:40:57;;;;;;;37.55;19.45;;;;;;;;;;5032759;28;20759;-79
2022/12/02 02:43:24;;;;;;;36.28;19.90;;;;;;;;;;5038517;28;20435;-79
2022/12/02 02:45:50;;;;;;;37.47;19.53;;;;;;;;;;5032378;28;20425;-78
2022/12/02 02:48:17;;;;;;;37.55;19.38;;;;;;;;;;5013223;28;20427;-79
2022/12/02 02:50:44;;;;;;;39.55;20.00;;;;;;;;;;5030245;28;20431;-79
2022/12/02 02:53:12;;;;;;;40.38;19.58;;;;;;;;;;5031994;28;20403;-79
2022/12/02 02:55:38;;;;;;;42.92;20.65;;;;;;;;;;5031868;28;20529;-79
2022/12/02 02:58:16;;;;;;;40.58;21.23;;;;;;;;;;4994528;28;20459;-79
2022/12/02 03:00:43;;;;;;;39.67;20.97;;;;;;;;;;4999515;28;20451;-79
2022/12/02 03:03:10;;;;;;;43.72;21.63;;;;;;;;;;5022218;28;20560;-79
2022/12/02 03:05:36;;;;;;;38.95;20.90;;;;;;;;;;5012971;28;20431;-79
2022/12/02 03:08:03;;;;;;;41.40;21.42;;;;;;;;;;5014245;28;20416;-78
2022/12/02 03:10:29;;;;;;;43.95;22.17;;;;;;;;;;5031486;28;20426;-79
2022/12/02 03:12:55;;;;;;;44.55;22.13;;;;;;;;;;5012332;28;20876;-78
2022/12/02 03:15:22;;;;;;;44.40;22.40;;;;;;;;;;5011701;28;20769;-78
2022/12/02 03:17:48;;;;;;;42.65;22.55;;;;;;;;;;5030456;28;20459;-77
2022/12/02 03:20:15;;;;;;;44.78;22.00;;;;;;;;;;5028992;28;20773;-79
2022/12/02 03:22:41;;;;;;;45.33;22.38;;;;;;;;;;5030124;28;20775;-78
2022/12/02 03:25:08;;;;;;;43.53;23.13;;;;;;;;;;5012746;28;20513;-79
2022/12/02 03:27:34;;;;;;;41.72;22.92;;;;;;;;;;5027131;28;20423;-79
2022/12/02 03:30:00;;;;;;;46.05;21.83;;;;;;;;;;5013944;28;20518;-79
2022/12/02 03:32:27;;;;;;;42.95;22.00;;;;;;;;;;5012974;28;20459;-79
2022/12/02 03:34:53;;;;;;;40.88;21.33;;;;;;;;;;5027691;28;20415;-79
2022/12/02 03:37:19;;;;;;;45.10;21.77;;;;;;;;;;5040001;28;20492;-79
2022/12/02 03:39:45;;;;;;;41.58;21.55;;;;;;;;;;5047851;28;20444;-79
2022/12/02 03:42:11;;;;;;;45.15;22.17;;;;;;;;;;5047963;28;20429;-78
2022/12/02 03:44:37;;;;;;;41.27;21.07;;;;;;;;;;5033128;28;20571;-78
2022/12/02 03:47:03;;;;;;;40.83;20.40;;;;;;;;;;5049312;28;20456;-78
2022/12/02 03:49:31;;;;;;;38.53;20.90;;;;;;;;;;5028161;28;20453;-78
2022/12/02 03:51:57;;;;;;;42.38;21.38;;;;;;;;;;5021305;28;20850;-79
2022/12/02 03:54:23;;;;;;;40.03;20.98;;;;;;;;;;5029069;28;20430;-78
2022/12/02 03:56:50;;;;;;;43.67;21.27;;;;;;;;;;5036326;28;20457;-79
2022/12/02 03:59:20;;;;;;;43.65;22.45;;;;;;;;;;5050291;28;20405;-79
2022/12/02 04:01:46;;;;;;;45.22;21.92;;;;;;;;;;5048750;28;20433;-79
2022/12/02 04:04:12;;;;;;;41.97;21.77;;;;;;;;;;5031119;28;20773;-79
2022/12/02 04:06:38;;;;;;;43.97;22.73;;;;;;;;;;5033195;28;20501;-78
2022/12/02 04:09:04;;;;;;;45.22;22.95;;;;;;;;;;5049458;28;20679;-79
2022/12/02 04:11:30;;;;;;;42.97;22.33;;;;;;;;;;5015910;28;20425;-78
2022/12/02 04:13:56;;;;;;;46.03;22.75;;;;;;;;;;5032645;28;20425;-78
2022/12/02 04:16:23;;;;;;;44.25;23.13;;;;;;;;;;5031366;28;20425;-79
2022/12/02 04:18:49;;;;;;;44.47;22.52;;;;;;;;;;5032779;28;20508;-77
2022/12/02 04:21:15;;;;;;;46.35;22.63;;;;;;;;;;5049458;28;20765;-78
2022/12/02 04:23:41;;;;;;;43.87;22.53;;;;;;;;;;5032175;28;20753;-79
2022/12/02 04:26:07;;;;;;;46.92;22.65;;;;;;;;;;5031191;28;21003;-78
2022/12/02 04:28:33;;;;;;;45.28;22.85;;;;;;;;;;5015237;28;20920;-77
2022/12/02 04:30:59;;;;;;;47.38;24.50;;;;;;;;;;5030569;28;20505;-77
2022/12/02 04:33:25;;;;;;;44.65;22.73;;;;;;;;;;5016611;28;20428;-78
2022/12/02 04:35:51;;;;;;;44.90;22.60;;;;;;;;;;5048655;28;20545;-78
2022/12/02 04:38:17;;;;;;;46.20;23.67;;;;;;;;;;5030455;28;20481;-77
2022/12/02 04:40:43;;;;;;;47.03;23.92;;;;;;;;;;5027642;28;20787;-77
2022/12/02 04:43:09;;;;;;;49.80;23.92;;;;;;;;;;5008234;28;20756;-72
2022/12/02 04:45:35;;;;;;;48.33;23.70;;;;;;;;;;5025621;28;20431;-72
2022/12/02 04:48:01;;;;;;;48.20;22.80;;;;;;;;;;5008389;28;20434;-71
2022/12/02 04:50:27;;;;;;;47.97;23.58;;;;;;;;;;5012905;28;20434;-71
2022/12/02 04:52:53;;;;;;;47.28;23.42;;;;;;;;;;5010997;28;20513;-72
2022/12/02 04:55:19;;;;;;;49.13;23.42;;;;;;;;;;5027356;28;20445;-73
2022/12/02 04:57:45;;;;;;;46.10;22.83;;;;;;;;;;5025960;28;20430;-72
2022/12/02 05:00:12;;;;;;;45.57;23.43;;;;;;;;;;5011716;28;20511;-72
2022/12/02 05:02:38;;;;;;;51.47;23.80;;;;;;;;;;5027981;28;20533;-72
2022/12/02 05:05:04;;;;;;;50.58;23.35;;;;;;;;;;5013382;28;20419;-79
2022/12/02 05:07:30;;;;;;;48.72;23.60;;;;;;;;;;5015673;28;20431;-79
2022/12/02 05:09:59;;;;;;;50.50;24.13;;;;;;;;;;5031841;28;20426;-79
2022/12/02 05:12:25;;;;;;;50.75;23.63;;;;;;;;;;5030222;28;20504;-79
2022/12/02 05:14:52;;;;;;;53.03;25.30;;;;;;;;;;5014808;28;20450;-78
2022/12/02 05:17:18;;;;;;;52.50;25.08;;;;;;;;;;5053422;28;20427;-78
2022/12/02 05:19:44;;;;;;;53.10;24.70;;;;;;;;;;5017675;28;20637;-78
2022/12/02 05:22:10;;;;;;;52.53;23.55;;;;;;;;;;4982481;28;20427;-78
2022/12/02 05:24:36;;;;;;;56.72;25.55;;;;;;;;;;5030313;28;20427;-79
2022/12/02 05:27:02;;;;;;;57.00;25.05;;;;;;;;;;5014400;28;20479;-78
2022/12/02 05:29:28;;;;;;;55.75;24.70;;;;;;;;;;5023233;28;20423;-72
2022/12/02 05:31:54;;;;;;;56.60;25.05;;;;;;;;;;5032000;28;20437;-71
2022/12/02 05:34:21;;;;;;;54.65;25.88;;;;;;;;;;5013740;28;20434;-71
2022/12/02 05:36:47;;;;;;;53.38;25.17;;;;;;;;;;5016424;28;20418;-71
2022/12/02 05:39:13;;;;;;;55.03;25.35;;;;;;;;;;5025952;28;20445;-71
2022/12/02 05:41:39;;;;;;;56.70;26.17;;;;;;;;;;5031359;28;20425;-72
2022/12/02 05:44:18;;;;;;;58.70;26.42;;;;;;;;;;5030862;28;20596;-72
2022/12/02 05:46:45;;;;;;;60.22;28.00;;;;;;;;;;5017321;28;20511;-77
2022/12/02 05:49:21;;;;;;;60.10;26.23;;;;;;;;;;4996915;28;20680;-78
2022/12/02 05:51:55;;;;;;;55.50;25.80;;;;;;;;;;5012683;28;20499;-76
2022/12/02 05:54:22;;;;;;;57.78;26.42;;;;;;;;;;5022738;28;20427;-77
2022/12/02 05:56:48;;;;;;;56.95;26.00;;;;;;;;;;5030583;28;20430;-77
2022/12/02 05:59:16;;;;;;;56.90;25.27;;;;;;;;;;5029936;28;20454;-78
2022/12/02 06:01:42;;;;;;;56.07;26.03;;;;;;;;;;5031933;28;20846;-78
2022/12/02 06:04:35;;;;;;;56.37;27.07;;;;;;;;;;5031360;28;20430;-78
2022/12/02 06:07:02;;;;;;;56.20;25.35;;;;;;;;;;5028995;28;20419;-78
2022/12/02 06:09:29;;;;;;;59.63;26.87;;;;;;;;;;5029429;28;20478;-78
2022/12/02 06:11:56;;;;;;;60.97;26.50;;;;;;;;;;5028686;28;20430;-78
2022/12/02 06:14:28;;;;;;;56.83;26.05;;;;;;;;;;5041933;28;20421;-78
2022/12/02 06:16:55;;;;;;;58.90;26.37;;;;;;;;;;5028598;28;20413;-78
2022/12/02 06:19:53;;;;;;;60.00;26.80;;;3.00;99.90;;;;;;4997098;28;20409;-78
2022/12/02 06:22:25;;;;;;;60.63;27.52;;;;;;;;;;5007368;28;20519;-78
2022/12/02 06:24:53;;;;;;;60.20;27.67;;;;;;;;;;5043257;28;20454;-78
2022/12/02 06:27:21;;;;;;;60.95;27.88;;;;;;;;;;5040237;28;20432;-78
2022/12/02 06:29:50;;;;;;;58.67;25.45;;;;;;;;;;5034351;28;20447;-78
2022/12/02 06:32:20;;;;;;;57.33;25.50;;;;;;;;;;5028000;28;20425;-77
2022/12/02 06:34:48;;;;;;;57.88;26.02;;;;;;;;;;5027954;28;20911;-77
2022/12/02 06:37:17;;;;;;;59.80;26.25;;;;;;;;;;5028977;28;20423;-78
2022/12/02 06:39:45;;;;;;;59.95;26.73;;;;;;;;;;5029576;28;20764;-78
2022/12/02 06:42:19;;;;;;;58.20;26.88;;;;;;;;;;5030209;28;20438;-78
2022/12/02 06:45:04;;;;;;;63.58;26.00;;;;;;;;;;5030867;28;20456;-79
2022/12/02 06:47:36;;;;;;;58.30;25.67;;;;;;;;;;5028384;28;21059;-78
2022/12/02 06:50:05;;;;;;;61.20;27.60;;;;;;;;;;5031637;28;20557;-78
2022/12/02 06:52:35;;;;;;;60.25;27.42;;;;;;;;;;5030671;28;20415;-78
2022/12/02 06:55:01;;;;;;;60.13;26.93;;;;;;;;;;5030252;28;20987;-77
2022/12/02 06:57:30;;;;;;;63.20;26.95;;;;;;;;;;5017870;28;20425;-78
2022/12/02 06:59:56;;;;;;;59.65;26.45;;;;;;;;;;5031563;28;21037;-78
2022/12/02 07:02:30;;;;;;;60.00;26.63;;;;;;;;;;5014345;28;20787;-78
2022/12/02 07:04:58;;;;;;;63.00;26.90;;;;;;;;;;5015087;28;20434;-77
2022/12/02 07:07:28;;;;;;;59.75;26.73;;;;;;;;;;5031280;28;20413;-77
2022/12/02 07:09:54;;;;;;;63.38;27.73;;;;;;;;;;5024379;28;20417;-77
2022/12/02 07:12:22;;;;;;;66.30;27.00;;;;;;;;;;5023981;28;20934;-77
2022/12/02 07:14:48;;;;;;;64.07;27.75;;;;;;;;;;5030536;28;20407;-78
2022/12/02 07:17:14;;;;;;;62.78;27.77;;;;;;;;;;5030129;28;20422;-77
2022/12/02 07:19:41;;;;;;;63.03;27.23;;;;;;;;;;5031379;28;20429;-77
2022/12/02 07:22:15;;;;;;;70.88;28.67;;;;;;;;;;5029893;28;20988;-78
2022/12/02 07:24:41;;;;;;;67.80;27.05;;;;;;;;;;4995477;28;20861;-79
2022/12/02 07:27:19;;;;;;;66.15;28.38;;;;;;;;;;5029172;28;20469;-78
2022/12/02 07:29:45;;;;;;;65.45;28.25;;;;;;;;;;5027682;28;20422;-78
2022/12/02 07:32:11;;;;;;;66.05;27.67;;;;;;;;;;5012334;28;20434;-79
2022/12/02 07:34:37;;;;;;;67.40;28.35;;;;;;;;;;5029123;28;20494;-79
2022/12/02 07:37:03;;;;;;;66.35;28.48;;;;;;;;;;5014149;28;20432;-79
2022/12/02 07:39:30;;;;;;;67.73;28.27;;;;;;;;;;5011988;28;20957;-79
2022/12/02 07:41:56;;;;;;;67.73;28.33;;;;;;;;;;5023526;28;20862;-80
2022/12/02 07:44:22;;;;;;;70.70;29.83;;;;;;;;;;5021694;28;20500;-80
2022/12/02 07:46:48;;;;;;;70.75;28.85;;;;;;;;;;5028747;28;20418;-80
2022/12/02 07:49:14;;;;;;;65.85;29.45;;;;;;;;;;5028859;28;20423;-79
2022/12/02 07:51:40;;;;;;;72.53;28.38;;;;;;;;;;5031046;28;20423;-79
2022/12/02 07:54:06;;;;;;;68.65;29.52;;;;;;;;;;5018417;28;20494;-79
2022/12/02 07:56:32;;;;;;;69.43;29.20;;;;;;;;;;5046057;28;20434;-79
2022/12/02 07:58:59;;;;;;;70.90;29.00;;;;;;;;;;5023987;28;20501;-79
2022/12/02 08:01:25;;;;;;;70.00;29.77;;;;;;;;;;5019649;28;20444;-78
2022/12/02 08:03:57;;;;;;;65.30;29.27;;;;;;;;;;5016391;28;20429;-79
2022/12/02 08:06:23;;;;;;;69.90;29.92;;;;;;;;;;5008986;28;20554;-79
2022/12/02 08:08:50;;;;;;;66.72;28.63;;;;;;;;;;5039403;28;20415;-77
2022/12/02 08:11:16;;;;;;;66.25;29.30;;;;;;;;;;5035846;28;20431;-77
2022/12/02 08:13:45;;;;;;;61.63;29.60;;;;;;;;;;5026276;28;20466;-80
2022/12/02 08:16:11;;;;;;;62.20;26.85;;;;;;;;;;5029750;28;20949;-79
2022/12/02 08:18:38;;;;;;;61.03;28.17;;;;;;;;;;4997546;28;20957;-79
2022/12/02 08:21:04;;;;;;;57.85;28.13;;;;;;;;;;5028269;28;20968;-77
2022/12/02 08:23:30;;;;;;;58.85;26.90;;;;;;;;;;5011511;28;20424;-78
2022/12/02 08:25:56;;;;;;;58.97;26.17;;;;;;;;;;5027328;28;20419;-79
2022/12/02 08:28:24;;;;;;;63.80;28.45;;;;;;;;;;5028573;28;20431;-79
2022/12/02 08:30:54;;;;;;;59.60;28.42;;;;;;;;;;5025287;28;20889;-78
2022/12/02 08:33:20;;;;;;;57.67;27.92;;;;;;;;;;5027234;28;20418;-79
2022/12/02 08:35:46;;;;;;;52.55;28.35;;;;;;;;;;5029072;28;20433;-79
2022/12/02 08:38:12;;;;;;;58.05;25.17;;;;;;;;;;5044314;28;20421;-78
2022/12/02 08:40:38;;;;;;;53.08;24.30;;;;;;;;;;5047136;28;20490;-80
2022/12/02 08:43:04;;;;;;;52.35;25.10;;;;;;;;;;5045879;28;20431;-78
2022/12/02 08:45:30;;;;;;;54.70;25.23;;;;;;;;;;5048070;28;20421;-79
2022/12/02 08:47:56;;;;;;;58.92;27.65;;;;;;;;;;5036421;28;20586;-80
2022/12/02 08:50:22;;;;;;;56.35;25.45;;;;;;;;;;5018867;28;20425;-80
2022/12/02 08:52:48;;;;;;;60.63;26.45;;;;;;;;;;5048636;28;20432;-80
2022/12/02 08:55:14;;;;;;;57.87;26.63;;;;;;;;;;5033350;28;20449;-80
2022/12/02 08:57:40;;;;;;;55.42;25.15;;;;;;;;;;5041699;28;20471;-80
2022/12/02 09:00:07;;;;;;;56.65;24.55;;;;;;;;;;5049795;28;20419;-80
2022/12/02 09:02:33;;;;;;;57.53;25.63;;;;;;;;;;5024741;28;20516;-81
2022/12/02 09:04:59;;;;;;;60.83;25.10;;;;;;;;;;5053469;28;20467;-80
2022/12/02 09:07:25;;;;;;;58.50;25.90;;;;;;;;;;5033228;28;20443;-79
2022/12/02 09:09:51;;;;;;;55.95;25.40;;;;;;;;;;5017732;28;20968;-79
2022/12/02 09:12:17;;;;;;;53.03;24.20;;;;;;;;;;5044395;28;20921;-80
2022/12/02 09:14:43;;;;;;;53.15;23.55;;;;;;;;;;5048726;28;20431;-79
2022/12/02 09:17:09;;;;;;;52.85;23.52;;;;;;;;;;5042604;28;20475;-80
2022/12/02 09:19:36;;;;;;;51.92;22.88;;;;;;;;;;5040585;28;20433;-79
2022/12/02 09:22:02;;;;;;;47.95;23.17;;;;;;;;;;5046321;28;20967;-79
2022/12/02 09:24:28;;;;;;;50.47;22.73;;;;;;;;;;5045531;28;20425;-79
2022/12/02 09:26:54;;;;;;;48.53;21.98;;;;;;;;;;5041580;28;20815;-79
2022/12/02 09:29:20;;;;;;;50.05;21.98;;;;;;;;;;5029173;28;20863;-80
2022/12/02 09:31:46;;;;;;;52.80;23.05;;;;;;;;;;5046902;28;20425;-80
2022/12/02 09:34:12;;;;;;;47.97;21.65;;;;;;;;;;5017534;28;20443;-80
2022/12/02 09:36:38;;;;;;;48.75;21.58;;;;;;;;;;5055034;28;20484;-80
2022/12/02 09:39:04;;;;;;;47.90;22.25;;;;;;;;;;5021903;28;20817;-80
2022/12/02 09:41:30;;;;;;;45.05;20.98;;;;;;;;;;5022407;28;20427;-80
2022/12/02 09:43:56;;;;;;;42.50;20.80;;;;;;;;;;5051897;28;20420;-79
2022/12/02 09:46:24;;;;;;;44.78;19.92;;;;;;;;;;5046497;28;20417;-80
2022/12/02 09:48:50;;;;;;;44.85;19.05;;;;;;;;;;5045808;28;20468;-82
2022/12/02 09:51:16;;;;;;;46.38;19.90;;;;;;;;;;5068706;28;20427;-81
2022/12/02 09:53:42;;;;;;;46.13;19.30;;;;;;;;;;5048010;28;20416;-81
2022/12/02 09:56:14;;;;;;;44.63;19.83;;;;;;;;;;5021473;28;20427;-80
2022/12/02 09:58:40;;;;;;;47.35;20.92;;;;;;;;;;5036516;28;20440;-81
2022/12/02 10:01:11;;;;;;;46.30;20.63;;;;;;;;;;5038139;28;20951;-80
2022/12/02 10:03:38;;;;;;;55.15;23.00;;;;;;;;;;5036489;28;20427;-80
2022/12/02 10:06:06;;;;;;;52.00;22.70;;;;;;;;;;5040123;28;20439;-81
2022/12/02 10:08:32;;;;;;;47.50;20.35;;;;;;;;;;5038559;28;20425;-81
2022/12/02 10:10:59;;;;;;;49.17;22.90;;;;;;;;;;5040597;28;20534;-80
2022/12/02 10:13:25;;;;;;;55.28;24.00;;;;;;;;;;5036295;28;20469;-80
2022/12/02 10:15:51;;;;;;;49.80;22.13;;;;;;;;;;5052973;28;20422;-81
2022/12/02 10:18:18;;;;;;;49.35;21.73;;;;;;;;;;5048197;28;20460;-81
2022/12/02 10:20:45;;;;;;;50.05;22.13;;;;;;;;;;5030532;28;21937;-80
2022/12/02 10:23:13;;;;;;;48.22;22.52;;;;;;;;;;5013045;28;20421;-81
2022/12/02 10:25:42;;;;;;;51.85;23.20;;;;;;;;;;5070814;28;20444;-81
2022/12/02 10:28:37;;;;;;;49.20;22.00;;;;;;;;;;5048953;28;20449;-80
2022/12/02 10:31:09;;;;;;;49.97;22.02;;;;;;;;;;5051411;28;20510;-81
2022/12/02 10:33:38;;;;;;;49.50;23.57;;;;;;;;;;5060098;28;20434;-79
2022/12/02 10:36:04;;;;;;;52.60;23.83;;;;;;;;;;5092812;28;20415;-80
2022/12/02 10:38:37;;;;;;;50.75;23.85;;;;;;;;;;5076899;28;20410;-80
2022/12/02 10:41:12;;;;;;;53.35;23.33;;;;;;;;;;5050890;28;20429;-79
2022/12/02 10:43:38;;;;;;;50.70;23.90;;;;;;;;;;5055022;28;20523;-79
2022/12/02 10:46:04;;;;;;;53.83;23.70;;;;;;;;;;5065830;28;20421;-79
2022/12/02 10:48:30;;;;;;;50.13;22.65;;;;;;;;;;5065347;28;20459;-82
2022/12/02 10:50:57;;;;;;;49.38;23.88;;;;;;;;;;5034546;28;20508;-80
2022/12/02 10:53:26;;;;;;;51.90;23.70;;;;;;;;;;5041994;28;20586;-80
2022/12/02 10:55:52;;;;;;;50.35;23.73;;;;;;;;;;5031432;28;20495;-81
2022/12/02 10:58:36;;;;;;;52.15;23.75;;;;;;;;;;5052000;28;20420;-79
2022/12/02 11:01:02;;;;;;;53.53;25.55;;;;;;;;;;5036005;28;20912;-79
2022/12/02 11:03:28;;;;;;;51.42;23.75;;;;;;;;;;5050914;28;20435;-78
2022/12/02 11:06:04;;;;;;;50.88;24.65;;;;;;;;;;5052542;28;20414;-80
2022/12/02 11:08:30;;;;;;;51.47;24.35;;;;;;;;;;5035943;28;20456;-80
2022/12/02 11:11:12;;;;;;;50.88;23.55;;;;;;;;;;5049727;28;20547;-80
2022/12/02 11:13:55;;;;;;;52.80;24.73;;;;;;;;;;5050526;28;20926;-80
2022/12/02 11:16:27;;;;;;;51.80;25.52;;;;;;;;;;5040362;28;20414;-79
2022/12/02 11:19:04;;;;;;;53.33;26.07;;;;;;;;;;5049981;28;20779;-79
2022/12/02 11:21:30;;;;;;;53.72;30.27;;;;;;;;;;5052142;28;20427;-80
2022/12/02 11:24:15;;;;;;;53.07;27.23;;;;;;;;;;5041689;28;20538;-79
2022/12/02 11:27:00;;;;;;;52.13;26.35;;;;;;;;;;5035325;28;20506;-80
2022/12/02 11:29:30;;;;;;;54.63;25.80;;;;;;;;;;5052636;28;20427;-80
2022/12/02 11:32:00;;;;;;;53.20;26.75;;;;;;;;;;5048227;28;20794;-80
2022/12/02 11:34:39;;;;;;;54.50;25.90;;;;;;;;;;5041634;28;20944;-79
2022/12/02 11:37:27;;;;;;;53.28;26.15;;;2.40;99.90;;;;;;5042531;28;21125;-79
2022/12/02 11:39:53;;;;;;;51.17;25.88;;;;;;;;;;5051393;28;20427;-79
2022/12/02 11:42:32;;;;;;;54.78;27.05;;;;;;;;;;5048604;28;21118;-79
2022/12/02 11:45:17;;;;;;;52.58;26.75;;;;;;;;;;5042803;28;20453;-79
2022/12/02 11:47:43;;;;;;;52.40;26.83;;;;;;;;;;5043753;28;20426;-78
2022/12/02 11:50:29;;;;;;;55.25;27.45;;;;;;;;;;5046977;28;20421;-80
2022/12/02 11:52:56;;;;;;;52.25;26.98;;;;;;;;;;5053196;28;20938;-81
2022/12/02 11:55:29;;;;;;;52.73;28.27;;;;;;;;;;5037832;28;20510;-80
2022/12/02 11:57:56;;;;;;;54.28;27.70;;;;;;;;;;5017503;28;20436;-80
2022/12/02 12:00:25;;;;;;;53.23;27.10;;;;;;;;;;5037522;28;20570;-80
2022/12/02 12:03:07;;;;;;;54.38;28.08;;;;;;;;;;5051190;28;20433;-79
2022/12/02 12:05:33;;;;;;;57.38;29.20;;;;;;;;;;5035833;28;20427;-79
2022/12/02 12:07:59;;;;;;;53.13;29.40;;;;;;;;;;5034294;28;20420;-79
2022/12/02 12:10:33;;;;;;;51.35;30.20;;;;;;;;;;5048905;28;20539;-79
2022/12/02 12:13:18;;;;;;;53.17;28.05;;;;;;;;;;5050120;28;20916;-79
2022/12/02 12:15:55;;;;;;;51.38;28.48;;;;;;;;;;5039690;28;20515;-80
2022/12/02 12:18:40;;;;;;;53.53;29.25;;;;;;;;;;5049885;28;20419;-81
2022/12/02 12:21:06;;;;;;;50.55;28.80;;;;;;;;;;5031140;28;20528;-79
2022/12/02 12:23:34;;;;;;;56.00;31.10;;;;;;;;;;5049246;28;20835;-79
2022/12/02 12:26:00;;;;;;;53.00;29.20;;;;;;;;;;5046450;28;20612;-79
2022/12/02 12:28:31;;;;;;;54.28;30.92;;;;;;;;;;5035641;28;20465;-80
2022/12/02 12:30:58;;;;;;;51.85;28.77;;;;;;;;;;5048487;28;20419;-79
2022/12/02 12:33:24;;;;;;;54.97;29.85;;;;;;;;;;5040733;28;20416;-78
2022/12/02 12:35:53;;;;;;;56.17;29.48;;;;;;;;;;5047928;28;20431;-79
2022/12/02 12:38:20;;;;;;;55.22;30.13;;;;;;;;;;5047623;28;20816;-78
2022/12/02 12:40:46;;;;;;;53.92;30.27;;;;;;;;;;5036293;28;20430;-79
2022/12/02 12:43:12;;;;;;;58.13;30.97;;;;;;;;;;5050790;28;20494;-79
2022/12/02 12:45:38;;;;;;;56.72;31.58;;;;;;;;;;5024784;28;20968;-80
2022/12/02 12:48:04;;;;;;;57.90;31.75;;;;;;;;;;5050181;28;20427;-78
2022/12/02 12:50:30;;;;;;;58.30;33.22;;;;;;;;;;5019252;28;20451;-79
2022/12/02 12:52:56;;;;;;;54.50;32.83;;;;;;;;;;5034449;28;20424;-79
2022/12/02 12:55:22;;;;;;;56.22;30.70;;;;;;;;;;5052188;28;20427;-79
2022/12/02 12:57:48;;;;;;;55.75;31.55;;;;;;;;;;5053235;28;20450;-79
2022/12/02 13:00:15;;;;;;;56.08;30.98;;;;;;;;;;5059938;28;20488;-79
2022/12/02 13:02:41;;;;;;;54.47;32.47;;;;;;;;;;5062926;28;20431;-80
2022/12/02 13:05:07;;;;;;;56.22;33.90;;;;;;;;;;5035413;28;20423;-79
2022/12/02 13:07:33;;;;;;;56.77;33.17;;;;;;;;;;5031069;28;21042;-80
2022/12/02 13:09:59;;;;;;;57.75;33.53;;;;;;;;;;5036902;28;20502;-81
2022/12/02 13:12:25;;;;;;;58.85;32.35;;;;;;;;;;5035559;28;20437;-79
2022/12/02 13:14:51;;;;;;;54.10;31.58;;;;;;;;;;5060883;28;20803;-80
2022/12/02 13:17:17;;;;;;;55.25;32.03;;;;;;;;;;5052103;28;20466;-79
2022/12/02 13:19:43;;;;;;;57.47;31.87;;;;;;;;;;5052671;28;20424;-80
2022/12/02 13:22:09;;;;;;;53.45;32.47;;;;;;;;;;5010666;28;20417;-72
2022/12/02 13:24:37;;;;;;;57.17;32.85;;;;;;;;;;5050766;28;20915;-73
2022/12/02 13:27:04;;;;;;;55.90;31.63;;;;;;;;;;5052507;28;20759;-73
2022/12/02 13:29:30;;;;;;;56.35;32.17;;;;;;;;;;5036636;28;20420;-73
2022/12/02 13:31:56;;;;;;;55.53;31.75;;;;;;;;;;5050071;28;20432;-72
2022/12/02 13:34:22;;;;;;;55.60;31.90;;;;;;;;;;5053765;28;20429;-79
2022/12/02 13:36:48;;;;;;;53.07;30.50;;;;;;;;;;5043338;28;20497;-79
2022/12/02 13:39:14;;;;;;;55.83;30.98;;;;;;;;;;5023113;28;20449;-79
2022/12/02 13:41:40;;;;;;;55.65;30.33;;;;;;;;;;5040712;28;20531;-79
2022/12/02 13:44:06;;;;;;;56.67;31.40;;;;;;;;;;5018793;28;20801;-79
2022/12/02 13:46:32;;;;;;;56.58;32.47;;;;;;;;;;5034488;28;20429;-79
2022/12/02 13:48:58;;;;;;;55.28;32.40;;;;;;;;;;5041052;28;20431;-79
2022/12/02 13:51:24;;;;;;;56.05;32.00;;;;;;;;;;5046968;28;20488;-80
2022/12/02 13:53:50;;;;;;;58.03;31.00;;;;;;;;;;5034789;28;20867;-79
2022/12/02 13:56:16;;;;;;;52.78;33.58;;;;;;;;;;5041184;28;20429;-80
2022/12/02 13:58:42;;;;;;;55.08;33.90;;;;;;;;;;5026015;28;20433;-79
2022/12/02 14:01:09;;;;;;;55.88;31.42;;;;;;;;;;5046971;28;20542;-79
2022/12/02 14:03:35;;;;;;;54.33;31.55;;;;;;;;;;5034514;28;20754;-79
2022/12/02 14:06:01;;;;;;;54.63;30.75;;;;;;;;;;5045660;28;20429;-80
2022/12/02 14:08:27;;;;;;;54.80;30.20;;;;;;;;;;5044001;28;20425;-80
2022/12/02 14:10:53;;;;;;;51.65;29.83;;;;;;;;;;5031228;28;20495;-82
2022/12/02 14:13:19;;;;;;;48.63;31.73;;;;;;;;;;5034279;28;20421;-80
2022/12/02 14:15:46;;;;;;;50.42;29.10;;;;;;;;;;5023152;28;20433;-79
2022/12/02 14:18:12;;;;;;;51.93;30.13;;;;;;;;;;5033554;28;20517;-80
2022/12/02 14:20:38;;;;;;;53.97;30.50;;;;;;;;;;5039772;28;20808;-78
2022/12/02 14:23:07;;;;;;;50.78;30.00;;;;;;;;;;5050498;28;20461;-73
2022/12/02 14:25:33;;;;;;;53.27;29.20;;;;;;;;;;5040053;28;20960;-72